Red Moon — D5EP8 — position and weather

sailwx.info

Track history (hours):
 
Tides and Currents Weather Stations Pressure Air Temp Water Temp Dewpoint Dewpoint Depression Visibility Wind Speed Wind Dir Waves Ship Positions

Red Moon

Last reported at 2017-Dec-15 12:06 UTC. Time now 2017-Dec-16 16:41 UTC.
Position N 36°19' E 014°54'.

Length 274 m; draft 9.5 m.

Type: Tanker. MMSI: 636016129.

Date/timePositionNaut miles runAvg speedWind from/ knotsBaromVisibWave heightAir tempDewpointWater temp
2017-Dec-15 12:06N 36°19' E 014°54'2 8.9
2017-Dec-15 11:55N 36°19' E 014°52'410.7
2017-Dec-15 11:30N 36°19' E 014°47'510.5
2017-Dec-15 11:00N 36°19' E 014°40'510.1
2017-Dec-15 10:30N 36°20' E 014°34'510.0
2017-Dec-15 10:00N 36°21' E 014°28'510.0
2017-Dec-15 09:30N 36°23' E 014°22'510.3
2017-Dec-15 09:00N 36°24' E 014°16'5 9.9
2017-Dec-15 08:31N 36°26' E 014°10'5 9.9
2017-Dec-15 08:00N 36°27' E 014°04'5 9.8
2017-Dec-15 07:31N 36°29' E 013°59'5 9.9
2017-Dec-15 07:00N 36°31' E 013°53'5 9.5
2017-Dec-15 06:30N 36°32' E 013°47'5 9.8
2017-Dec-15 06:00N 36°34' E 013°41'  
2017-Dec-11 21:34N 36°03' W 004°25'113.4
2017-Dec-11 21:29N 36°03' W 004°27'713.1
2017-Dec-11 20:57N 36°02' W 004°35'1012.8
2017-Dec-11 20:09N 36°02' W 004°48'1914.3
2017-Dec-11 18:50N 36°00' W 005°11'916.0
2017-Dec-11 18:18N 35°58' W 005°22'514.7
2017-Dec-11 17:58N 35°57' W 005°28'913.8
2017-Dec-11 17:19N 35°55' W 005°38'412.5
2017-Dec-11 17:00N 35°54' W 005°43'611.8
2017-Dec-11 16:30N 35°54' W 005°50'612.2
2017-Dec-11 16:00N 35°54' W 005°58'612.8
2017-Dec-11 15:30N 35°53' W 006°06'612.7
2017-Dec-11 15:00N 35°53' W 006°13'612.6
2017-Dec-11 14:30N 35°53' W 006°21'612.7
2017-Dec-11 14:00N 35°53' W 006°29'612.8
2017-Dec-11 13:30N 35°54' W 006°37'612.5
2017-Dec-11 13:00N 35°54' W 006°45'612.3
2017-Dec-11 12:30N 35°54' W 006°52'612.1
2017-Dec-11 12:00N 35°54' W 006°60'611.4
2017-Dec-11 11:30N 35°54' W 007°07'611.9
2017-Dec-11 11:00N 35°55' W 007°14'612.0
2017-Dec-11 10:30N 35°57' W 007°21'712.6
2017-Dec-11 09:59N 35°60' W 007°28'712.7
2017-Dec-11 09:28N 36°03' W 007°35'17111.6
2017-Dec-10 18:40N 38°12' W 009°57'214.6
2017-Dec-10 18:30N 38°14' W 009°58'714.2
2017-Dec-10 18:00N 38°21' W 009°60'714.2
2017-Dec-10 17:30N 38°28' W 010°02'714.3
2017-Dec-10 17:00N 38°35' W 010°04'714.5
2017-Dec-10 16:31N 38°42' W 010°06'714.0
2017-Dec-10 16:00N 38°49' W 010°06'714.3
2017-Dec-10 15:30N 38°56' W 010°06'714.3
2017-Dec-10 15:00N 39°03' W 010°06'714.4
2017-Dec-10 14:30N 39°10' W 010°07'714.8
2017-Dec-10 14:00N 39°18' W 010°07'714.2
2017-Dec-10 13:30N 39°25' W 010°08'67313.4
2017-Dec-08 11:14N 49°42' W 003°53'513.0
2017-Dec-08 10:51N 49°45' W 003°47'612.5
2017-Dec-08 10:22N 49°48' W 003°38'412.0
2017-Dec-08 10:00N 49°50' W 003°32'611.7
2017-Dec-08 09:30N 49°53' W 003°24'611.3
2017-Dec-08 09:00N 49°55' W 003°16'611.2
2017-Dec-08 08:30N 49°56' W 003°08'611.7
2017-Dec-08 08:00N 49°57' W 002°59'612.2
2017-Dec-08 07:30N 49°59' W 002°50'713.0
2017-Dec-08 07:00N 50°01' W 002°40'713.7
2017-Dec-08 06:30N 50°03' W 002°30'6113.1
2017-Dec-08 01:49N 49°50' W 000°56'512.5
2017-Dec-08 01:25N 49°48' W 000°50'512.3
2017-Dec-08 01:01N 49°45' W 000°43'612.1
2017-Dec-08 00:31N 49°42' W 000°35'612.0
2017-Dec-08 00:00N 49°39' W 000°27'612.2
2017-Dec-07 23:30N 49°35' W 000°20'612.1
2017-Dec-07 23:00N 49°32' W 000°12'612.5
2017-Dec-07 22:30N 49°31' W 000°02'611.9
2017-Dec-07 22:01N 49°29' E 000°06'2 4.0
2017-Dec-07 21:30N 49°28' E 000°09'0 0.0
2017-Dec-07 21:00N 49°28' E 000°09'0 0.0
2017-Dec-07 20:30N 49°28' E 000°09'0 0.0
2017-Dec-07 20:00N 49°28' E 000°09'0 0.0
2017-Dec-07 19:30N 49°28' E 000°09'0 0.0
2017-Dec-07 19:00N 49°28' E 000°09'0 0.0
2017-Dec-07 18:30N 49°28' E 000°09'0 0.0
2017-Dec-07 17:57N 49°28' E 000°09'0 0.0
2017-Dec-07 17:30N 49°28' E 000°09'0 0.0
2017-Dec-07 17:00N 49°28' E 000°09'0 0.0
2017-Dec-07 16:30N 49°28' E 000°09'0 0.0
2017-Dec-07 16:00N 49°28' E 000°09'0 0.0
2017-Dec-07 15:30N 49°28' E 000°09'0 0.0
2017-Dec-07 15:00N 49°28' E 000°09'0 0.0
2017-Dec-07 14:30N 49°28' E 000°09'0 0.0
2017-Dec-07 14:00N 49°28' E 000°09'0 0.0
2017-Dec-07 13:30N 49°28' E 000°09'0 0.0
2017-Dec-07 13:00N 49°28' E 000°09'0 0.0
2017-Dec-07 12:30N 49°28' E 000°09'0 0.0
2017-Dec-07 11:57N 49°28' E 000°09'0 0.0
2017-Dec-07 11:30N 49°28' E 000°09'0 0.0
2017-Dec-07 11:00N 49°28' E 000°09'0 0.0
2017-Dec-07 10:30N 49°28' E 000°09'0 0.0
2017-Dec-07 10:00N 49°28' E 000°09'0 0.0
2017-Dec-07 09:30N 49°28' E 000°09'0 0.0
2017-Dec-07 09:00N 49°28' E 000°09'0 0.0
2017-Dec-07 08:30N 49°28' E 000°09'0 0.0
2017-Dec-07 08:00N 49°28' E 000°09'0 0.0
2017-Dec-07 07:30N 49°28' E 000°09'0 0.0
2017-Dec-07 07:00N 49°28' E 000°09'0 0.0
2017-Dec-07 06:30N 49°28' E 000°09'0 0.0
2017-Dec-07 06:00N 49°28' E 000°09'0 0.0
2017-Dec-07 05:30N 49°28' E 000°09'0 0.0
2017-Dec-07 05:00N 49°28' E 000°09'0 0.0
2017-Dec-07 04:30N 49°28' E 000°09'0 0.0
2017-Dec-07 04:00N 49°28' E 000°09'0 0.0
2017-Dec-07 03:27N 49°28' E 000°09'0 0.0
2017-Dec-07 03:00N 49°28' E 000°09'0 0.0
2017-Dec-07 02:30N 49°28' E 000°09'0 0.0
2017-Dec-07 02:00N 49°28' E 000°09'0 0.0
2017-Dec-07 01:30N 49°28' E 000°09'0 0.0
2017-Dec-07 01:00N 49°28' E 000°09'0 0.0
2017-Dec-07 00:30N 49°28' E 000°09'0 0.0
2017-Dec-07 00:00N 49°28' E 000°09'0 0.0
2017-Dec-06 23:30N 49°28' E 000°09'0 0.0
2017-Dec-06 23:00N 49°28' E 000°09'0 0.0
2017-Dec-06 22:30N 49°28' E 000°09'0 0.0
2017-Dec-06 22:00N 49°28' E 000°09'0 0.0
2017-Dec-06 21:30N 49°28' E 000°09'0 0.0
2017-Dec-06 21:00N 49°28' E 000°09'  
Track history (hours):
 
Tides and Currents Weather Stations Pressure Air Temp Water Temp Dewpoint Dewpoint Depression Visibility Wind Speed Wind Dir Waves Ship Positions

Red Moon

Last reported at 2017-Dec-15 12:06 UTC. Time now 2017-Dec-16 16:41 UTC.
Position N 36°19' E 014°54'.

Length 274 m; draft 9.5 m.

Type: Tanker. MMSI: 636016129.

Date/timePositionNaut miles runAvg speedWind from/ knotsBaromVisibWave heightAir tempDewpointWater temp
2017-Dec-15 12:06N 36°19' E 014°54'2 8.9
2017-Dec-15 11:55N 36°19' E 014°52'410.7
2017-Dec-15 11:30N 36°19' E 014°47'510.5
2017-Dec-15 11:00N 36°19' E 014°40'510.1
2017-Dec-15 10:30N 36°20' E 014°34'510.0
2017-Dec-15 10:00N 36°21' E 014°28'510.0
2017-Dec-15 09:30N 36°23' E 014°22'510.3
2017-Dec-15 09:00N 36°24' E 014°16'5 9.9
2017-Dec-15 08:31N 36°26' E 014°10'5 9.9
2017-Dec-15 08:00N 36°27' E 014°04'5 9.8
2017-Dec-15 07:31N 36°29' E 013°59'5 9.9
2017-Dec-15 07:00N 36°31' E 013°53'5 9.5
2017-Dec-15 06:30N 36°32' E 013°47'5 9.8
2017-Dec-15 06:00N 36°34' E 013°41'  
2017-Dec-11 21:34N 36°03' W 004°25'113.4
2017-Dec-11 21:29N 36°03' W 004°27'713.1
2017-Dec-11 20:57N 36°02' W 004°35'1012.8
2017-Dec-11 20:09N 36°02' W 004°48'1914.3
2017-Dec-11 18:50N 36°00' W 005°11'916.0
2017-Dec-11 18:18N 35°58' W 005°22'514.7
2017-Dec-11 17:58N 35°57' W 005°28'913.8
2017-Dec-11 17:19N 35°55' W 005°38'412.5
2017-Dec-11 17:00N 35°54' W 005°43'611.8
2017-Dec-11 16:30N 35°54' W 005°50'612.2
2017-Dec-11 16:00N 35°54' W 005°58'612.8
2017-Dec-11 15:30N 35°53' W 006°06'612.7
2017-Dec-11 15:00N 35°53' W 006°13'612.6
2017-Dec-11 14:30N 35°53' W 006°21'612.7
2017-Dec-11 14:00N 35°53' W 006°29'612.8
2017-Dec-11 13:30N 35°54' W 006°37'612.5
2017-Dec-11 13:00N 35°54' W 006°45'612.3
2017-Dec-11 12:30N 35°54' W 006°52'612.1
2017-Dec-11 12:00N 35°54' W 006°60'611.4
2017-Dec-11 11:30N 35°54' W 007°07'611.9
2017-Dec-11 11:00N 35°55' W 007°14'612.0
2017-Dec-11 10:30N 35°57' W 007°21'712.6
2017-Dec-11 09:59N 35°60' W 007°28'712.7
2017-Dec-11 09:28N 36°03' W 007°35'17111.6
2017-Dec-10 18:40N 38°12' W 009°57'214.6
2017-Dec-10 18:30N 38°14' W 009°58'714.2
2017-Dec-10 18:00N 38°21' W 009°60'714.2
2017-Dec-10 17:30N 38°28' W 010°02'714.3
2017-Dec-10 17:00N 38°35' W 010°04'714.5
2017-Dec-10 16:31N 38°42' W 010°06'714.0
2017-Dec-10 16:00N 38°49' W 010°06'714.3
2017-Dec-10 15:30N 38°56' W 010°06'714.3
2017-Dec-10 15:00N 39°03' W 010°06'714.4
2017-Dec-10 14:30N 39°10' W 010°07'714.8
2017-Dec-10 14:00N 39°18' W 010°07'714.2
2017-Dec-10 13:30N 39°25' W 010°08'67313.4
2017-Dec-08 11:14N 49°42' W 003°53'513.0
2017-Dec-08 10:51N 49°45' W 003°47'612.5
2017-Dec-08 10:22N 49°48' W 003°38'412.0
2017-Dec-08 10:00N 49°50' W 003°32'611.7
2017-Dec-08 09:30N 49°53' W 003°24'611.3
2017-Dec-08 09:00N 49°55' W 003°16'611.2
2017-Dec-08 08:30N 49°56' W 003°08'611.7
2017-Dec-08 08:00N 49°57' W 002°59'612.2
2017-Dec-08 07:30N 49°59' W 002°50'713.0
2017-Dec-08 07:00N 50°01' W 002°40'713.7
2017-Dec-08 06:30N 50°03' W 002°30'6113.1
2017-Dec-08 01:49N 49°50' W 000°56'512.5
2017-Dec-08 01:25N 49°48' W 000°50'512.3
2017-Dec-08 01:01N 49°45' W 000°43'612.1
2017-Dec-08 00:31N 49°42' W 000°35'612.0
2017-Dec-08 00:00N 49°39' W 000°27'612.2
2017-Dec-07 23:30N 49°35' W 000°20'612.1
2017-Dec-07 23:00N 49°32' W 000°12'612.5
2017-Dec-07 22:30N 49°31' W 000°02'611.9
2017-Dec-07 22:01N 49°29' E 000°06'2 4.0
2017-Dec-07 21:30N 49°28' E 000°09'0 0.0
2017-Dec-07 21:00N 49°28' E 000°09'0 0.0
2017-Dec-07 20:30N 49°28' E 000°09'0 0.0
2017-Dec-07 20:00N 49°28' E 000°09'0 0.0
2017-Dec-07 19:30N 49°28' E 000°09'0 0.0
2017-Dec-07 19:00N 49°28' E 000°09'0 0.0
2017-Dec-07 18:30N 49°28' E 000°09'0 0.0
2017-Dec-07 17:57N 49°28' E 000°09'0 0.0
2017-Dec-07 17:30N 49°28' E 000°09'0 0.0
2017-Dec-07 17:00N 49°28' E 000°09'0 0.0
2017-Dec-07 16:30N 49°28' E 000°09'0 0.0
2017-Dec-07 16:00N 49°28' E 000°09'0 0.0
2017-Dec-07 15:30N 49°28' E 000°09'0 0.0
2017-Dec-07 15:00N 49°28' E 000°09'0 0.0
2017-Dec-07 14:30N 49°28' E 000°09'0 0.0
2017-Dec-07 14:00N 49°28' E 000°09'0 0.0
2017-Dec-07 13:30N 49°28' E 000°09'0 0.0
2017-Dec-07 13:00N 49°28' E 000°09'0 0.0
2017-Dec-07 12:30N 49°28' E 000°09'0 0.0
2017-Dec-07 11:57N 49°28' E 000°09'0 0.0
2017-Dec-07 11:30N 49°28' E 000°09'0 0.0
2017-Dec-07 11:00N 49°28' E 000°09'0 0.0
2017-Dec-07 10:30N 49°28' E 000°09'0 0.0
2017-Dec-07 10:00N 49°28' E 000°09'0 0.0
2017-Dec-07 09:30N 49°28' E 000°09'0 0.0
2017-Dec-07 09:00N 49°28' E 000°09'0 0.0
2017-Dec-07 08:30N 49°28' E 000°09'0 0.0
2017-Dec-07 08:00N 49°28' E 000°09'0 0.0
2017-Dec-07 07:30N 49°28' E 000°09'0 0.0
2017-Dec-07 07:00N 49°28' E 000°09'0 0.0
2017-Dec-07 06:30N 49°28' E 000°09'0 0.0
2017-Dec-07 06:00N 49°28' E 000°09'0 0.0
2017-Dec-07 05:30N 49°28' E 000°09'0 0.0
2017-Dec-07 05:00N 49°28' E 000°09'0 0.0
2017-Dec-07 04:30N 49°28' E 000°09'0 0.0
2017-Dec-07 04:00N 49°28' E 000°09'0 0.0
2017-Dec-07 03:27N 49°28' E 000°09'0 0.0
2017-Dec-07 03:00N 49°28' E 000°09'0 0.0
2017-Dec-07 02:30N 49°28' E 000°09'0 0.0
2017-Dec-07 02:00N 49°28' E 000°09'0 0.0
2017-Dec-07 01:30N 49°28' E 000°09'0 0.0
2017-Dec-07 01:00N 49°28' E 000°09'0 0.0
2017-Dec-07 00:30N 49°28' E 000°09'0 0.0
2017-Dec-07 00:00N 49°28' E 000°09'0 0.0
2017-Dec-06 23:30N 49°28' E 000°09'0 0.0
2017-Dec-06 23:00N 49°28' E 000°09'0 0.0
2017-Dec-06 22:30N 49°28' E 000°09'0 0.0
2017-Dec-06 22:00N 49°28' E 000°09'0 0.0
2017-Dec-06 21:30N 49°28' E 000°09'0 0.0
2017-Dec-06 21:00N 49°28' E 000°09'  

Dump ship's entire track history